Bookmark and Share
Track history (hours):
 

MSC Claudia

Last reported at 2014-Apr-21 14:33 UTC. Time now 2014-Apr-23 15:10 UTC.
Position N 39°35' W 029°55'.

Length 292 m; draft 9.2 m.

Type: Ship (hazmat cat A). MMSI: 370606000.

NotesDate/timePositionNaut miles runAvg speedWind from/ knotsBaromVisibWave heightAir tempDewpointWater temp
2014-Apr-21 14:33N 39°35' W 029°55'1717.1
2014-Apr-21 13:33N 39°31' W 029°34'1716.9
2014-Apr-21 12:34N 39°26' W 029°13'1717.2
2014-Apr-21 11:34N 39°22' W 028°51'1817.6
2014-Apr-21 10:34N 39°17' W 028°29'1717.4
2014-Apr-21 09:34N 39°13' W 028°07'1817.7
2014-Apr-21 08:33N 39°10' W 027°45'1817.8
2014-Apr-21 07:34N 39°05' W 027°23'1817.4
2014-Apr-21 06:33N 39°02' W 027°01'3817.5
2014-Apr-21 04:23N 38°53' W 026°13'1517.8
2014-Apr-21 03:33N 38°50' W 025°54'1717.5
2014-Apr-21 02:34N 38°46' W 025°33'1817.6
2014-Apr-21 01:33N 38°42' W 025°11'1817.9
2014-Apr-21 00:33N 38°38' W 024°48'1717.7
2014-Apr-20 23:33N 38°34' W 024°26'1817.8
2014-Apr-20 22:33N 38°30' W 024°04'74518.0
2014-Apr-19 05:10N 35°59' W 008°48'14318.1
2014-Apr-18 21:17N 35°57' W 005°51'1414.7
2014-Apr-18 20:21N 35°57' W 005°34'911.4
2014-Apr-18 19:33N 36°00' W 005°24'1111.2
2014-Apr-18 18:33N 36°03' W 005°11'24318.5
2014-Apr-18 05:27N 37°38' W 000°31'1918.3
2014-Apr-18 04:25N 37°53' W 000°18'2018.2
2014-Apr-18 03:20N 38°10' W 000°05'124 3.2
2014-Apr-16 12:33N 39°57' E 001°15'2020.3
2014-Apr-16 11:34N 40°07' E 001°38'1817.6
2014-Apr-16 10:34N 40°16' E 001°57'1413.7
2014-Apr-16 09:33N 40°24' E 002°12'1212.1
2014-Apr-16 08:33N 40°31' E 002°25'1312.9
2014-Apr-16 07:33N 40°38' E 002°39'1313.1
2014-Apr-16 06:33N 40°46' E 002°53'1313.2
2014-Apr-16 05:34N 40°54' E 003°07'1413.3
2014-Apr-16 04:29N 41°01' E 003°23'1313.3
2014-Apr-16 03:31N 41°09' E 003°37'2713.6
2014-Apr-16 01:33N 41°24' E 004°07'1413.2
2014-Apr-16 00:31N 41°31' E 004°22'1312.8
2014-Apr-15 23:32N 41°39' E 004°35'2512.6
2014-Apr-15 21:33N 41°53' E 005°03'1212.3
2014-Apr-15 20:33N 42°00' E 005°16'1312.3
2014-Apr-15 19:31N 42°07' E 005°31'1512.2
2014-Apr-15 18:19N 42°15' E 005°47'912.4
2014-Apr-15 17:34N 42°21' E 005°58'1212.3
2014-Apr-15 16:33N 42°28' E 006°11'1514.6
2014-Apr-15 15:33N 42°36' E 006°27'1615.9
2014-Apr-15 14:33N 42°47' E 006°44'15 7.8
2014-Apr-15 12:34N 42°51' E 007°04'1615.7
2014-Apr-15 11:34N 42°54' E 007°25'3215.8
2014-Apr-15 09:34N 43°11' E 008°02'1615.9
2014-Apr-15 08:34N 43°21' E 008°20'1616.0
2014-Apr-15 07:34N 43°30' E 008°37'1615.6
2014-Apr-15 06:34N 43°39' E 008°55'1615.5
2014-Apr-15 05:34N 43°46' E 009°14'3115.6
2014-Apr-15 03:34N 44°00' E 009°52'6 5.9
2014-Apr-15 02:33N 44°06' E 009°51'0 0.0
2014-Apr-15 01:33N 44°06' E 009°51'0 0.0
2014-Apr-15 00:30N 44°06' E 009°51'0 0.0
2014-Apr-14 23:33N 44°06' E 009°51'0 0.0
2014-Apr-14 22:32N 44°06' E 009°51'0 0.0
2014-Apr-14 21:32N 44°06' E 009°51'0 0.0
2014-Apr-14 20:32N 44°06' E 009°51'0 0.0
2014-Apr-14 19:32N 44°06' E 009°51'0 0.0
2014-Apr-14 18:32N 44°06' E 009°51'0 0.0
2014-Apr-14 17:29N 44°06' E 009°51'0 0.0
2014-Apr-14 16:32N 44°06' E 009°51'0 0.0
2014-Apr-14 15:32N 44°06' E 009°51'0 0.0
2014-Apr-14 14:32N 44°06' E 009°51'0 0.0
2014-Apr-14 13:32N 44°06' E 009°51'0 0.0
2014-Apr-14 11:32N 44°06' E 009°51'0 0.0
2014-Apr-14 10:32N 44°06' E 009°51'0 0.0
2014-Apr-14 09:32N 44°06' E 009°51'1 0.6
2014-Apr-14 08:33N 44°06' E 009°51'8 8.2
2014-Apr-14 07:33N 43°60' E 009°58'1010.2
2014-Apr-14 06:33N 43°50' E 009°53'1313.3
2014-Apr-14 05:33N 43°37' E 009°48'  
2014-Apr-11 19:10N 38°14' E 010°52'1716.5
2014-Apr-11 18:07N 38°12' E 010°30'916.5
2014-Apr-11 17:33N 38°11' E 010°18'1716.6
2014-Apr-11 16:33N 38°10' E 009°57'1716.5
2014-Apr-11 15:33N 38°08' E 009°36'1616.4
2014-Apr-11 14:33N 38°06' E 009°15'  

Dump ship's entire track history

sailing weather and tide predictions

MSC Claudia — 3FZA6 — position and weather